TAF KCKV
KCKV 270520Z 2706/2806 18003KT P6SM SKC FM271400 21010KT P6SM SCT100=
METAR KCKV
WC KCKV
WS KCKV
WV KCKV